sensor_id;sensor_type;location;lat;lon;timestamp;P1;durP1;ratioP1;P2;durP2;ratioP2
24153;SDS011;12312;53.362;-1.518;2023-12-07T00:00:43;11.57;;;5.60;;
24153;SDS011;12312;53.362;-1.518;2023-12-07T00:03:27;12.70;;;6.65;;
24153;SDS011;12312;53.362;-1.518;2023-12-07T00:06:11;17.13;;;6.30;;
24153;SDS011;12312;53.362;-1.518;2023-12-07T00:08:55;14.70;;;6.95;;
24153;SDS011;12312;53.362;-1.518;2023-12-07T00:11:40;13.60;;;6.53;;
24153;SDS011;12312;53.362;-1.518;2023-12-07T00:14:24;13.32;;;6.80;;
24153;SDS011;12312;53.362;-1.518;2023-12-07T00:17:08;17.10;;;6.97;;
24153;SDS011;12312;53.362;-1.518;2023-12-07T00:19:52;20.88;;;7.15;;
24153;SDS011;12312;53.362;-1.518;2023-12-07T00:22:39;27.45;;;6.85;;
24153;SDS011;12312;53.362;-1.518;2023-12-07T00:25:23;17.90;;;7.15;;
24153;SDS011;12312;53.362;-1.518;2023-12-07T00:28:07;14.32;;;5.97;;
24153;SDS011;12312;53.362;-1.518;2023-12-07T00:30:51;13.32;;;6.32;;
24153;SDS011;12312;53.362;-1.518;2023-12-07T00:33:35;13.07;;;6.75;;
24153;SDS011;12312;53.362;-1.518;2023-12-07T00:36:19;12.60;;;7.18;;
24153;SDS011;12312;53.362;-1.518;2023-12-07T00:39:03;9.32;;;5.38;;
24153;SDS011;12312;53.362;-1.518;2023-12-07T00:41:47;13.07;;;5.90;;
24153;SDS011;12312;53.362;-1.518;2023-12-07T00:44:31;20.15;;;6.90;;
24153;SDS011;12312;53.362;-1.518;2023-12-07T00:47:15;66.70;;;8.35;;
24153;SDS011;12312;53.362;-1.518;2023-12-07T00:49:59;17.08;;;6.30;;
24153;SDS011;12312;53.362;-1.518;2023-12-07T00:52:43;18.02;;;6.32;;
24153;SDS011;12312;53.362;-1.518;2023-12-07T00:55:27;14.18;;;5.75;;
24153;SDS011;12312;53.362;-1.518;2023-12-07T00:58:11;15.85;;;6.28;;
24153;SDS011;12312;53.362;-1.518;2023-12-07T01:00:55;15.48;;;5.93;;
24153;SDS011;12312;53.362;-1.518;2023-12-07T01:03:39;15.88;;;6.00;;
24153;SDS011;12312;53.362;-1.518;2023-12-07T01:06:24;16.43;;;5.33;;
24153;SDS011;12312;53.362;-1.518;2023-12-07T01:09:08;13.13;;;6.70;;
24153;SDS011;12312;53.362;-1.518;2023-12-07T01:11:56;22.17;;;6.78;;
24153;SDS011;12312;53.362;-1.518;2023-12-07T01:14:41;14.57;;;6.03;;
24153;SDS011;12312;53.362;-1.518;2023-12-07T01:17:25;17.08;;;6.70;;
24153;SDS011;12312;53.362;-1.518;2023-12-07T01:20:09;16.08;;;7.20;;
24153;SDS011;12312;53.362;-1.518;2023-12-07T01:22:57;15.90;;;7.13;;
24153;SDS011;12312;53.362;-1.518;2023-12-07T01:25:41;16.58;;;6.65;;
24153;SDS011;12312;53.362;-1.518;2023-12-07T01:28:25;26.65;;;8.35;;
24153;SDS011;12312;53.362;-1.518;2023-12-07T01:31:08;20.13;;;6.90;;
24153;SDS011;12312;53.362;-1.518;2023-12-07T01:33:53;16.30;;;7.38;;
24153;SDS011;12312;53.362;-1.518;2023-12-07T01:36:36;24.60;;;7.15;;
24153;SDS011;12312;53.362;-1.518;2023-12-07T01:39:21;18.10;;;7.82;;
24153;SDS011;12312;53.362;-1.518;2023-12-07T01:42:05;24.75;;;7.80;;
24153;SDS011;12312;53.362;-1.518;2023-12-07T01:44:49;17.20;;;6.90;;
24153;SDS011;12312;53.362;-1.518;2023-12-07T01:47:33;18.13;;;7.38;;
24153;SDS011;12312;53.362;-1.518;2023-12-07T01:50:19;18.23;;;7.63;;
24153;SDS011;12312;53.362;-1.518;2023-12-07T01:53:08;21.67;;;7.80;;
24153;SDS011;12312;53.362;-1.518;2023-12-07T01:55:53;24.17;;;6.47;;
24153;SDS011;12312;53.362;-1.518;2023-12-07T01:58:37;18.23;;;6.63;;
24153;SDS011;12312;53.362;-1.518;2023-12-07T02:01:22;18.65;;;8.40;;
24153;SDS011;12312;53.362;-1.518;2023-12-07T02:04:06;21.83;;;6.85;;
24153;SDS011;12312;53.362;-1.518;2023-12-07T02:06:51;18.30;;;8.63;;
24153;SDS011;12312;53.362;-1.518;2023-12-07T02:09:37;20.45;;;7.70;;
24153;SDS011;12312;53.362;-1.518;2023-12-07T02:12:21;21.55;;;8.02;;
24153;SDS011;12312;53.362;-1.518;2023-12-07T02:15:05;17.40;;;8.10;;
24153;SDS011;12312;53.362;-1.518;2023-12-07T02:21:13;14.68;;;7.22;;
24153;SDS011;12312;53.362;-1.518;2023-12-07T02:24:20;17.13;;;7.37;;
24153;SDS011;12312;53.362;-1.518;2023-12-07T02:29:49;21.48;;;7.25;;
24153;SDS011;12312;53.362;-1.518;2023-12-07T02:32:34;16.42;;;7.93;;
24153;SDS011;12312;53.362;-1.518;2023-12-07T02:38:03;22.27;;;8.27;;
24153;SDS011;12312;53.362;-1.518;2023-12-07T02:40:49;19.17;;;7.22;;
24153;SDS011;12312;53.362;-1.518;2023-12-07T02:43:34;18.85;;;7.30;;
24153;SDS011;12312;53.362;-1.518;2023-12-07T02:46:19;20.92;;;8.50;;
24153;SDS011;12312;53.362;-1.518;2023-12-07T02:49:03;19.02;;;7.70;;
24153;SDS011;12312;53.362;-1.518;2023-12-07T02:51:48;20.13;;;8.13;;
24153;SDS011;12312;53.362;-1.518;2023-12-07T02:54:31;19.33;;;7.28;;
24153;SDS011;12312;53.362;-1.518;2023-12-07T02:57:15;21.52;;;7.63;;
24153;SDS011;12312;53.362;-1.518;2023-12-07T02:59:59;21.60;;;8.35;;
24153;SDS011;12312;53.362;-1.518;2023-12-07T03:02:44;18.80;;;7.68;;
24153;SDS011;12312;53.362;-1.518;2023-12-07T03:05:28;32.67;;;8.55;;
24153;SDS011;12312;53.362;-1.518;2023-12-07T03:08:12;18.27;;;8.35;;
24153;SDS011;12312;53.362;-1.518;2023-12-07T03:10:56;20.45;;;9.05;;
24153;SDS011;12312;53.362;-1.518;2023-12-07T03:13:40;18.88;;;7.55;;
24153;SDS011;12312;53.362;-1.518;2023-12-07T03:16:24;14.65;;;7.90;;
24153;SDS011;12312;53.362;-1.518;2023-12-07T03:19:08;18.70;;;7.85;;
24153;SDS011;12312;53.362;-1.518;2023-12-07T03:21:52;25.65;;;7.82;;
24153;SDS011;12312;53.362;-1.518;2023-12-07T03:24:36;27.48;;;8.18;;
24153;SDS011;12312;53.362;-1.518;2023-12-07T03:27:21;18.40;;;8.05;;
24153;SDS011;12312;53.362;-1.518;2023-12-07T03:30:05;19.55;;;7.75;;
24153;SDS011;12312;53.362;-1.518;2023-12-07T03:32:50;17.60;;;7.95;;
24153;SDS011;12312;53.362;-1.518;2023-12-07T03:35:34;17.98;;;6.72;;
24153;SDS011;12312;53.362;-1.518;2023-12-07T03:38:18;23.15;;;7.25;;
24153;SDS011;12312;53.362;-1.518;2023-12-07T03:41:02;23.17;;;8.85;;
24153;SDS011;12312;53.362;-1.518;2023-12-07T03:43:47;17.75;;;7.80;;
24153;SDS011;12312;53.362;-1.518;2023-12-07T03:46:31;24.80;;;8.80;;
24153;SDS011;12312;53.362;-1.518;2023-12-07T03:49:15;22.88;;;8.00;;
24153;SDS011;12312;53.362;-1.518;2023-12-07T03:51:58;14.55;;;6.95;;
24153;SDS011;12312;53.362;-1.518;2023-12-07T03:54:42;24.08;;;7.35;;
24153;SDS011;12312;53.362;-1.518;2023-12-07T03:57:26;17.00;;;6.95;;
24153;SDS011;12312;53.362;-1.518;2023-12-07T04:00:10;21.33;;;8.15;;
24153;SDS011;12312;53.362;-1.518;2023-12-07T04:02:57;16.35;;;7.82;;
24153;SDS011;12312;53.362;-1.518;2023-12-07T04:05:41;19.98;;;6.80;;
24153;SDS011;12312;53.362;-1.518;2023-12-07T04:08:24;17.13;;;7.25;;
24153;SDS011;12312;53.362;-1.518;2023-12-07T04:11:08;22.25;;;8.05;;
24153;SDS011;12312;53.362;-1.518;2023-12-07T04:13:52;19.98;;;6.93;;
24153;SDS011;12312;53.362;-1.518;2023-12-07T04:16:36;15.60;;;7.55;;
24153;SDS011;12312;53.362;-1.518;2023-12-07T04:19:20;23.20;;;7.80;;
24153;SDS011;12312;53.362;-1.518;2023-12-07T04:22:04;18.25;;;7.35;;
24153;SDS011;12312;53.362;-1.518;2023-12-07T04:24:48;18.33;;;7.93;;
24153;SDS011;12312;53.362;-1.518;2023-12-07T04:27:33;20.02;;;9.27;;
24153;SDS011;12312;53.362;-1.518;2023-12-07T04:30:17;19.80;;;7.72;;
24153;SDS011;12312;53.362;-1.518;2023-12-07T04:33:02;16.48;;;7.72;;
24153;SDS011;12312;53.362;-1.518;2023-12-07T04:35:46;14.30;;;7.15;;
24153;SDS011;12312;53.362;-1.518;2023-12-07T04:38:31;19.55;;;7.65;;
24153;SDS011;12312;53.362;-1.518;2023-12-07T04:41:16;21.02;;;6.90;;
24153;SDS011;12312;53.362;-1.518;2023-12-07T04:44:00;23.10;;;6.47;;
24153;SDS011;12312;53.362;-1.518;2023-12-07T04:46:44;21.45;;;8.45;;
24153;SDS011;12312;53.362;-1.518;2023-12-07T04:49:28;16.25;;;7.90;;
24153;SDS011;12312;53.362;-1.518;2023-12-07T04:52:12;20.15;;;7.90;;
24153;SDS011;12312;53.362;-1.518;2023-12-07T04:54:55;18.85;;;7.80;;
24153;SDS011;12312;53.362;-1.518;2023-12-07T04:57:40;23.85;;;8.98;;
24153;SDS011;12312;53.362;-1.518;2023-12-07T05:00:24;14.70;;;7.25;;
24153;SDS011;12312;53.362;-1.518;2023-12-07T05:03:08;14.80;;;7.93;;
24153;SDS011;12312;53.362;-1.518;2023-12-07T05:05:53;25.30;;;8.65;;
24153;SDS011;12312;53.362;-1.518;2023-12-07T05:08:37;15.02;;;7.47;;
24153;SDS011;12312;53.362;-1.518;2023-12-07T05:11:22;21.42;;;8.32;;
24153;SDS011;12312;53.362;-1.518;2023-12-07T05:14:06;23.05;;;9.52;;
24153;SDS011;12312;53.362;-1.518;2023-12-07T05:16:51;23.27;;;8.32;;
24153;SDS011;12312;53.362;-1.518;2023-12-07T05:19:39;17.70;;;8.63;;
24153;SDS011;12312;53.362;-1.518;2023-12-07T05:22:23;26.90;;;8.90;;
24153;SDS011;12312;53.362;-1.518;2023-12-07T05:25:07;16.55;;;7.30;;
24153;SDS011;12312;53.362;-1.518;2023-12-07T05:27:51;24.95;;;8.35;;
24153;SDS011;12312;53.362;-1.518;2023-12-07T05:30:35;21.48;;;8.93;;
24153;SDS011;12312;53.362;-1.518;2023-12-07T05:33:20;25.48;;;8.63;;
24153;SDS011;12312;53.362;-1.518;2023-12-07T05:36:04;21.40;;;8.73;;
24153;SDS011;12312;53.362;-1.518;2023-12-07T05:38:48;22.42;;;8.25;;
24153;SDS011;12312;53.362;-1.518;2023-12-07T05:41:32;19.92;;;8.88;;
24153;SDS011;12312;53.362;-1.518;2023-12-07T05:44:17;21.88;;;8.18;;
24153;SDS011;12312;53.362;-1.518;2023-12-07T05:47:05;22.58;;;8.48;;
24153;SDS011;12312;53.362;-1.518;2023-12-07T05:49:49;23.50;;;8.07;;
24153;SDS011;12312;53.362;-1.518;2023-12-07T05:52:33;22.48;;;8.32;;
24153;SDS011;12312;53.362;-1.518;2023-12-07T05:55:17;20.25;;;7.53;;
24153;SDS011;12312;53.362;-1.518;2023-12-07T05:58:01;23.77;;;8.18;;
24153;SDS011;12312;53.362;-1.518;2023-12-07T06:00:45;20.88;;;8.60;;
24153;SDS011;12312;53.362;-1.518;2023-12-07T06:03:30;25.77;;;8.73;;
24153;SDS011;12312;53.362;-1.518;2023-12-07T06:06:16;16.00;;;9.15;;
24153;SDS011;12312;53.362;-1.518;2023-12-07T06:09:00;17.73;;;9.68;;
24153;SDS011;12312;53.362;-1.518;2023-12-07T06:11:44;20.08;;;8.80;;
24153;SDS011;12312;53.362;-1.518;2023-12-07T06:14:28;26.95;;;9.38;;
24153;SDS011;12312;53.362;-1.518;2023-12-07T06:17:12;22.60;;;8.35;;
24153;SDS011;12312;53.362;-1.518;2023-12-07T06:19:56;25.38;;;9.40;;
24153;SDS011;12312;53.362;-1.518;2023-12-07T06:22:40;26.35;;;8.43;;
24153;SDS011;12312;53.362;-1.518;2023-12-07T06:25:25;30.73;;;9.40;;
24153;SDS011;12312;53.362;-1.518;2023-12-07T06:28:09;23.27;;;9.35;;
24153;SDS011;12312;53.362;-1.518;2023-12-07T06:30:53;19.95;;;7.93;;
24153;SDS011;12312;53.362;-1.518;2023-12-07T06:33:37;19.38;;;8.50;;
24153;SDS011;12312;53.362;-1.518;2023-12-07T06:36:22;19.42;;;8.68;;
24153;SDS011;12312;53.362;-1.518;2023-12-07T06:41:51;17.70;;;6.85;;
24153;SDS011;12312;53.362;-1.518;2023-12-07T06:44:35;17.35;;;7.80;;
24153;SDS011;12312;53.362;-1.518;2023-12-07T06:47:19;21.90;;;9.27;;
24153;SDS011;12312;53.362;-1.518;2023-12-07T06:50:03;21.73;;;7.95;;
24153;SDS011;12312;53.362;-1.518;2023-12-07T06:52:48;25.75;;;9.20;;
24153;SDS011;12312;53.362;-1.518;2023-12-07T06:55:32;21.90;;;8.90;;
24153;SDS011;12312;53.362;-1.518;2023-12-07T06:58:17;20.98;;;8.15;;
24153;SDS011;12312;53.362;-1.518;2023-12-07T07:01:01;22.00;;;9.15;;
24153;SDS011;12312;53.362;-1.518;2023-12-07T07:03:45;26.58;;;9.43;;
24153;SDS011;12312;53.362;-1.518;2023-12-07T07:06:29;19.67;;;7.93;;
24153;SDS011;12312;53.362;-1.518;2023-12-07T07:09:14;21.33;;;8.27;;
24153;SDS011;12312;53.362;-1.518;2023-12-07T07:11:59;19.48;;;7.97;;
24153;SDS011;12312;53.362;-1.518;2023-12-07T07:14:44;18.58;;;7.85;;
24153;SDS011;12312;53.362;-1.518;2023-12-07T07:17:27;19.75;;;8.30;;
24153;SDS011;12312;53.362;-1.518;2023-12-07T07:20:13;23.63;;;8.07;;
24153;SDS011;12312;53.362;-1.518;2023-12-07T07:22:57;29.50;;;8.35;;
24153;SDS011;12312;53.362;-1.518;2023-12-07T07:25:41;24.50;;;8.68;;
24153;SDS011;12312;53.362;-1.518;2023-12-07T07:28:25;12.73;;;7.22;;
24153;SDS011;12312;53.362;-1.518;2023-12-07T07:31:09;14.70;;;7.20;;
24153;SDS011;12312;53.362;-1.518;2023-12-07T07:33:53;17.65;;;6.95;;
24153;SDS011;12312;53.362;-1.518;2023-12-07T07:36:37;17.10;;;8.25;;
24153;SDS011;12312;53.362;-1.518;2023-12-07T07:39:21;16.00;;;7.63;;
24153;SDS011;12312;53.362;-1.518;2023-12-07T07:42:05;21.77;;;8.50;;
24153;SDS011;12312;53.362;-1.518;2023-12-07T07:44:49;18.05;;;7.65;;
24153;SDS011;12312;53.362;-1.518;2023-12-07T07:47:33;15.57;;;7.25;;
24153;SDS011;12312;53.362;-1.518;2023-12-07T07:50:17;12.68;;;6.95;;
24153;SDS011;12312;53.362;-1.518;2023-12-07T07:53:02;16.63;;;7.63;;
24153;SDS011;12312;53.362;-1.518;2023-12-07T07:55:47;13.57;;;7.25;;
24153;SDS011;12312;53.362;-1.518;2023-12-07T07:58:31;16.67;;;6.55;;
24153;SDS011;12312;53.362;-1.518;2023-12-07T08:01:15;14.85;;;6.95;;
24153;SDS011;12312;53.362;-1.518;2023-12-07T08:03:59;15.65;;;7.20;;
24153;SDS011;12312;53.362;-1.518;2023-12-07T08:06:43;14.80;;;7.70;;
24153;SDS011;12312;53.362;-1.518;2023-12-07T08:09:27;15.85;;;6.97;;
24153;SDS011;12312;53.362;-1.518;2023-12-07T08:12:11;15.35;;;6.13;;
24153;SDS011;12312;53.362;-1.518;2023-12-07T08:14:56;14.07;;;6.55;;
24153;SDS011;12312;53.362;-1.518;2023-12-07T08:17:40;14.60;;;6.53;;
24153;SDS011;12312;53.362;-1.518;2023-12-07T08:20:24;16.20;;;7.00;;
24153;SDS011;12312;53.362;-1.518;2023-12-07T08:23:08;12.38;;;6.10;;
24153;SDS011;12312;53.362;-1.518;2023-12-07T08:25:53;15.43;;;6.65;;
24153;SDS011;12312;53.362;-1.518;2023-12-07T08:28:41;11.63;;;6.15;;
24153;SDS011;12312;53.362;-1.518;2023-12-07T08:31:25;14.85;;;6.57;;
24153;SDS011;12312;53.362;-1.518;2023-12-07T08:34:09;14.63;;;6.65;;
24153;SDS011;12312;53.362;-1.518;2023-12-07T08:36:53;12.68;;;6.72;;
24153;SDS011;12312;53.362;-1.518;2023-12-07T08:39:37;17.73;;;6.65;;
24153;SDS011;12312;53.362;-1.518;2023-12-07T08:42:21;15.23;;;6.18;;
24153;SDS011;12312;53.362;-1.518;2023-12-07T08:45:05;14.43;;;6.82;;
24153;SDS011;12312;53.362;-1.518;2023-12-07T08:47:50;17.83;;;6.78;;
24153;SDS011;12312;53.362;-1.518;2023-12-07T08:50:34;19.52;;;6.22;;
24153;SDS011;12312;53.362;-1.518;2023-12-07T08:53:18;18.40;;;6.70;;
24153;SDS011;12312;53.362;-1.518;2023-12-07T08:56:02;16.83;;;7.28;;
24153;SDS011;12312;53.362;-1.518;2023-12-07T08:58:46;16.02;;;7.22;;
24153;SDS011;12312;53.362;-1.518;2023-12-07T09:01:31;14.02;;;6.18;;
24153;SDS011;12312;53.362;-1.518;2023-12-07T09:04:16;14.57;;;6.53;;
24153;SDS011;12312;53.362;-1.518;2023-12-07T09:07:01;13.10;;;6.55;;
24153;SDS011;12312;53.362;-1.518;2023-12-07T09:09:45;13.73;;;6.53;;
24153;SDS011;12312;53.362;-1.518;2023-12-07T09:12:31;9.88;;;5.15;;
24153;SDS011;12312;53.362;-1.518;2023-12-07T09:15:15;17.17;;;6.30;;
24153;SDS011;12312;53.362;-1.518;2023-12-07T09:17:58;11.68;;;5.95;;
24153;SDS011;12312;53.362;-1.518;2023-12-07T09:20:42;9.48;;;5.22;;
24153;SDS011;12312;53.362;-1.518;2023-12-07T09:23:31;12.52;;;5.25;;
24153;SDS011;12312;53.362;-1.518;2023-12-07T09:28:59;11.02;;;4.82;;
24153;SDS011;12312;53.362;-1.518;2023-12-07T09:31:44;14.07;;;5.47;;
24153;SDS011;12312;53.362;-1.518;2023-12-07T09:34:27;10.23;;;5.50;;
24153;SDS011;12312;53.362;-1.518;2023-12-07T09:37:11;12.27;;;5.68;;
24153;SDS011;12312;53.362;-1.518;2023-12-07T09:39:56;17.38;;;7.03;;
24153;SDS011;12312;53.362;-1.518;2023-12-07T09:42:40;12.48;;;6.65;;
24153;SDS011;12312;53.362;-1.518;2023-12-07T09:48:10;16.30;;;7.57;;
24153;SDS011;12312;53.362;-1.518;2023-12-07T09:50:55;16.42;;;7.45;;
24153;SDS011;12312;53.362;-1.518;2023-12-07T09:53:40;14.15;;;7.18;;
24153;SDS011;12312;53.362;-1.518;2023-12-07T09:56:27;15.68;;;7.30;;
24153;SDS011;12312;53.362;-1.518;2023-12-07T09:59:11;18.15;;;8.25;;
24153;SDS011;12312;53.362;-1.518;2023-12-07T10:01:55;18.67;;;8.20;;
24153;SDS011;12312;53.362;-1.518;2023-12-07T10:04:39;18.83;;;8.13;;
24153;SDS011;12312;53.362;-1.518;2023-12-07T10:07:31;18.67;;;7.45;;
24153;SDS011;12312;53.362;-1.518;2023-12-07T10:10:18;19.55;;;7.65;;
24153;SDS011;12312;53.362;-1.518;2023-12-07T10:13:02;13.90;;;7.25;;
24153;SDS011;12312;53.362;-1.518;2023-12-07T10:15:47;14.83;;;7.93;;
24153;SDS011;12312;53.362;-1.518;2023-12-07T10:18:50;15.10;;;7.10;;
24153;SDS011;12312;53.362;-1.518;2023-12-07T10:21:33;21.75;;;8.88;;
24153;SDS011;12312;53.362;-1.518;2023-12-07T10:24:19;16.95;;;8.52;;
24153;SDS011;12312;53.362;-1.518;2023-12-07T10:27:04;19.92;;;9.10;;
24153;SDS011;12312;53.362;-1.518;2023-12-07T10:29:50;21.88;;;7.53;;
24153;SDS011;12312;53.362;-1.518;2023-12-07T10:32:38;23.35;;;8.32;;
24153;SDS011;12312;53.362;-1.518;2023-12-07T10:35:22;17.75;;;8.40;;
24153;SDS011;12312;53.362;-1.518;2023-12-07T10:38:08;18.60;;;8.63;;
24153;SDS011;12312;53.362;-1.518;2023-12-07T10:40:58;19.70;;;7.72;;
24153;SDS011;12312;53.362;-1.518;2023-12-07T10:46:36;19.27;;;8.95;;
24153;SDS011;12312;53.362;-1.518;2023-12-07T10:49:21;21.48;;;8.10;;
24153;SDS011;12312;53.362;-1.518;2023-12-07T10:52:12;17.67;;;8.43;;
24153;SDS011;12312;53.362;-1.518;2023-12-07T10:55:03;24.10;;;9.32;;
24153;SDS011;12312;53.362;-1.518;2023-12-07T10:57:51;25.60;;;8.52;;
24153;SDS011;12312;53.362;-1.518;2023-12-07T11:00:37;18.02;;;8.50;;
24153;SDS011;12312;53.362;-1.518;2023-12-07T11:03:21;22.65;;;9.95;;
24153;SDS011;12312;53.362;-1.518;2023-12-07T11:06:06;19.55;;;9.45;;
24153;SDS011;12312;53.362;-1.518;2023-12-07T11:08:54;25.20;;;9.77;;
24153;SDS011;12312;53.362;-1.518;2023-12-07T11:14:40;15.68;;;8.48;;
24153;SDS011;12312;53.362;-1.518;2023-12-07T11:17:24;19.42;;;8.50;;
24153;SDS011;12312;53.362;-1.518;2023-12-07T11:20:12;21.08;;;9.35;;
24153;SDS011;12312;53.362;-1.518;2023-12-07T11:23:06;15.75;;;8.05;;
24153;SDS011;12312;53.362;-1.518;2023-12-07T11:25:52;21.95;;;8.48;;
24153;SDS011;12312;53.362;-1.518;2023-12-07T11:28:37;19.98;;;8.90;;
24153;SDS011;12312;53.362;-1.518;2023-12-07T11:31:23;16.63;;;7.93;;
24153;SDS011;12312;53.362;-1.518;2023-12-07T11:34:07;26.83;;;9.90;;
24153;SDS011;12312;53.362;-1.518;2023-12-07T11:36:57;24.90;;;9.63;;
24153;SDS011;12312;53.362;-1.518;2023-12-07T11:39:41;20.90;;;8.50;;
24153;SDS011;12312;53.362;-1.518;2023-12-07T11:42:26;22.53;;;9.50;;
24153;SDS011;12312;53.362;-1.518;2023-12-07T11:45:10;20.83;;;8.93;;
24153;SDS011;12312;53.362;-1.518;2023-12-07T11:48:08;24.40;;;9.40;;
24153;SDS011;12312;53.362;-1.518;2023-12-07T11:50:56;18.25;;;8.55;;
24153;SDS011;12312;53.362;-1.518;2023-12-07T11:56:26;21.38;;;9.13;;
24153;SDS011;12312;53.362;-1.518;2023-12-07T11:59:09;28.17;;;10.55;;
24153;SDS011;12312;53.362;-1.518;2023-12-07T12:01:54;25.85;;;9.63;;
24153;SDS011;12312;53.362;-1.518;2023-12-07T12:04:38;20.48;;;9.50;;
24153;SDS011;12312;53.362;-1.518;2023-12-07T12:10:09;20.20;;;9.02;;
24153;SDS011;12312;53.362;-1.518;2023-12-07T12:12:54;22.30;;;9.70;;
24153;SDS011;12312;53.362;-1.518;2023-12-07T12:15:39;25.23;;;9.60;;
24153;SDS011;12312;53.362;-1.518;2023-12-07T12:18:23;18.98;;;10.35;;
24153;SDS011;12312;53.362;-1.518;2023-12-07T12:23:54;27.20;;;9.90;;
24153;SDS011;12312;53.362;-1.518;2023-12-07T12:26:41;34.38;;;11.43;;
24153;SDS011;12312;53.362;-1.518;2023-12-07T12:29:27;29.67;;;10.23;;
24153;SDS011;12312;53.362;-1.518;2023-12-07T12:32:12;29.45;;;10.07;;
24153;SDS011;12312;53.362;-1.518;2023-12-07T12:34:56;22.40;;;9.32;;
24153;SDS011;12312;53.362;-1.518;2023-12-07T12:40:27;31.67;;;10.98;;
24153;SDS011;12312;53.362;-1.518;2023-12-07T12:43:15;26.27;;;9.88;;
24153;SDS011;12312;53.362;-1.518;2023-12-07T12:45:59;27.50;;;9.25;;
24153;SDS011;12312;53.362;-1.518;2023-12-07T12:48:59;30.60;;;11.18;;
24153;SDS011;12312;53.362;-1.518;2023-12-07T12:51:44;24.23;;;9.55;;
24153;SDS011;12312;53.362;-1.518;2023-12-07T12:54:31;21.67;;;8.35;;
24153;SDS011;12312;53.362;-1.518;2023-12-07T12:57:19;26.30;;;9.55;;
24153;SDS011;12312;53.362;-1.518;2023-12-07T13:00:03;23.10;;;9.57;;
24153;SDS011;12312;53.362;-1.518;2023-12-07T13:02:48;25.25;;;9.93;;
24153;SDS011;12312;53.362;-1.518;2023-12-07T13:05:33;25.80;;;9.25;;
24153;SDS011;12312;53.362;-1.518;2023-12-07T13:08:20;24.80;;;10.35;;
24153;SDS011;12312;53.362;-1.518;2023-12-07T13:11:05;30.58;;;10.35;;
24153;SDS011;12312;53.362;-1.518;2023-12-07T13:13:50;20.90;;;9.50;;
24153;SDS011;12312;53.362;-1.518;2023-12-07T13:16:33;26.35;;;10.38;;
24153;SDS011;12312;53.362;-1.518;2023-12-07T13:19:17;29.73;;;9.70;;
24153;SDS011;12312;53.362;-1.518;2023-12-07T13:24:48;24.17;;;10.27;;
24153;SDS011;12312;53.362;-1.518;2023-12-07T13:27:33;29.63;;;9.70;;
24153;SDS011;12312;53.362;-1.518;2023-12-07T13:30:18;24.75;;;9.68;;
24153;SDS011;12312;53.362;-1.518;2023-12-07T13:33:02;27.55;;;9.55;;
24153;SDS011;12312;53.362;-1.518;2023-12-07T13:35:48;29.52;;;10.18;;
24153;SDS011;12312;53.362;-1.518;2023-12-07T13:38:32;19.02;;;10.23;;
24153;SDS011;12312;53.362;-1.518;2023-12-07T13:41:18;22.35;;;9.48;;
24153;SDS011;12312;53.362;-1.518;2023-12-07T13:44:01;24.00;;;9.18;;
24153;SDS011;12312;53.362;-1.518;2023-12-07T13:46:46;24.40;;;9.77;;
24153;SDS011;12312;53.362;-1.518;2023-12-07T13:49:31;26.17;;;9.55;;
24153;SDS011;12312;53.362;-1.518;2023-12-07T13:52:15;25.13;;;9.07;;
24153;SDS011;12312;53.362;-1.518;2023-12-07T13:55:01;22.83;;;9.10;;
24153;SDS011;12312;53.362;-1.518;2023-12-07T13:57:45;20.05;;;8.70;;
24153;SDS011;12312;53.362;-1.518;2023-12-07T14:00:29;31.10;;;8.98;;
24153;SDS011;12312;53.362;-1.518;2023-12-07T14:03:13;27.48;;;9.82;;
24153;SDS011;12312;53.362;-1.518;2023-12-07T14:05:57;25.67;;;9.10;;
24153;SDS011;12312;53.362;-1.518;2023-12-07T14:08:41;19.45;;;8.82;;
24153;SDS011;12312;53.362;-1.518;2023-12-07T14:11:26;16.10;;;7.50;;
24153;SDS011;12312;53.362;-1.518;2023-12-07T14:14:10;17.83;;;8.88;;
24153;SDS011;12312;53.362;-1.518;2023-12-07T14:16:57;22.55;;;8.80;;
24153;SDS011;12312;53.362;-1.518;2023-12-07T14:19:41;23.10;;;9.98;;
24153;SDS011;12312;53.362;-1.518;2023-12-07T14:22:26;20.65;;;8.25;;
24153;SDS011;12312;53.362;-1.518;2023-12-07T14:25:10;18.65;;;9.20;;
24153;SDS011;12312;53.362;-1.518;2023-12-07T14:27:54;19.45;;;8.35;;
24153;SDS011;12312;53.362;-1.518;2023-12-07T14:30:38;19.05;;;9.13;;
24153;SDS011;12312;53.362;-1.518;2023-12-07T14:33:22;17.70;;;8.07;;
24153;SDS011;12312;53.362;-1.518;2023-12-07T14:36:08;21.83;;;9.20;;
24153;SDS011;12312;53.362;-1.518;2023-12-07T14:38:53;18.17;;;7.70;;
24153;SDS011;12312;53.362;-1.518;2023-12-07T14:41:38;21.67;;;8.80;;
24153;SDS011;12312;53.362;-1.518;2023-12-07T14:44:24;27.27;;;9.93;;
24153;SDS011;12312;53.362;-1.518;2023-12-07T14:47:08;17.38;;;8.75;;
24153;SDS011;12312;53.362;-1.518;2023-12-07T14:49:53;29.10;;;8.60;;
24153;SDS011;12312;53.362;-1.518;2023-12-07T14:52:37;15.20;;;7.32;;
24153;SDS011;12312;53.362;-1.518;2023-12-07T14:55:21;27.15;;;9.70;;
24153;SDS011;12312;53.362;-1.518;2023-12-07T14:58:06;18.27;;;8.40;;
24153;SDS011;12312;53.362;-1.518;2023-12-07T15:00:50;20.23;;;8.82;;
24153;SDS011;12312;53.362;-1.518;2023-12-07T15:03:35;22.15;;;8.80;;
24153;SDS011;12312;53.362;-1.518;2023-12-07T15:06:18;20.77;;;7.45;;
24153;SDS011;12312;53.362;-1.518;2023-12-07T15:09:02;16.92;;;8.13;;
24153;SDS011;12312;53.362;-1.518;2023-12-07T15:11:50;19.77;;;8.02;;
24153;SDS011;12312;53.362;-1.518;2023-12-07T15:14:34;17.10;;;7.50;;
24153;SDS011;12312;53.362;-1.518;2023-12-07T15:17:18;19.67;;;7.80;;
24153;SDS011;12312;53.362;-1.518;2023-12-07T15:20:02;18.10;;;7.63;;
24153;SDS011;12312;53.362;-1.518;2023-12-07T15:22:47;15.10;;;7.30;;
24153;SDS011;12312;53.362;-1.518;2023-12-07T15:25:32;16.55;;;7.90;;
24153;SDS011;12312;53.362;-1.518;2023-12-07T15:28:16;20.00;;;7.78;;
24153;SDS011;12312;53.362;-1.518;2023-12-07T15:30:59;23.98;;;10.45;;
24153;SDS011;12312;53.362;-1.518;2023-12-07T15:33:43;18.23;;;8.75;;
24153;SDS011;12312;53.362;-1.518;2023-12-07T15:36:27;17.63;;;8.05;;
24153;SDS011;12312;53.362;-1.518;2023-12-07T15:39:11;23.42;;;8.88;;
24153;SDS011;12312;53.362;-1.518;2023-12-07T15:41:56;18.50;;;9.48;;
24153;SDS011;12312;53.362;-1.518;2023-12-07T15:44:40;16.40;;;7.38;;
24153;SDS011;12312;53.362;-1.518;2023-12-07T15:47:24;21.70;;;8.32;;
24153;SDS011;12312;53.362;-1.518;2023-12-07T15:50:08;15.70;;;7.20;;
24153;SDS011;12312;53.362;-1.518;2023-12-07T15:52:54;14.13;;;8.05;;
24153;SDS011;12312;53.362;-1.518;2023-12-07T15:55:38;13.77;;;6.95;;
24153;SDS011;12312;53.362;-1.518;2023-12-07T15:58:23;9.52;;;5.53;;
24153;SDS011;12312;53.362;-1.518;2023-12-07T16:01:07;15.75;;;6.72;;
24153;SDS011;12312;53.362;-1.518;2023-12-07T16:03:51;13.32;;;6.47;;
24153;SDS011;12312;53.362;-1.518;2023-12-07T16:06:35;9.98;;;6.20;;
24153;SDS011;12312;53.362;-1.518;2023-12-07T16:09:19;24.20;;;9.43;;
24153;SDS011;12312;53.362;-1.518;2023-12-07T16:12:03;17.63;;;7.07;;
24153;SDS011;12312;53.362;-1.518;2023-12-07T16:14:48;19.30;;;7.70;;
24153;SDS011;12312;53.362;-1.518;2023-12-07T16:17:34;20.73;;;8.57;;
24153;SDS011;12312;53.362;-1.518;2023-12-07T16:20:18;16.70;;;7.35;;
24153;SDS011;12312;53.362;-1.518;2023-12-07T16:23:04;29.25;;;9.20;;
24153;SDS011;12312;53.362;-1.518;2023-12-07T16:25:48;27.27;;;7.55;;
24153;SDS011;12312;53.362;-1.518;2023-12-07T16:28:32;14.98;;;7.35;;
24153;SDS011;12312;53.362;-1.518;2023-12-07T16:31:16;17.85;;;6.55;;
24153;SDS011;12312;53.362;-1.518;2023-12-07T16:34:02;13.60;;;6.47;;
24153;SDS011;12312;53.362;-1.518;2023-12-07T16:36:47;19.20;;;7.80;;
24153;SDS011;12312;53.362;-1.518;2023-12-07T16:39:32;14.07;;;7.03;;